Marcos Braga

Olheiro - Internacional
25 Jun 2028
Domingo
Processo

Personalidade

Adaptabilidade (4) Ambição (6) Controvérsia (6) Lealdade (2) Pressão (2) Profissionalismo (1) Espírito Esportivo (8) Temperamento (16)

Perfil

Estilo de Treinamento Democrático
Licença Nacional A
Determinação 9
Gestão de Pessoas 10
Motivação 7
Disciplina 10
Satisfação no Trabalho
100%
Fadiga
0%
Função Olheiro
Salário 60.6K p/s
Contrato 14.03.2029

Desempenho

Comportamento Bom
Eficácia do Treinamento
48%
Desenvolvimento do Jogador
70%
Prevenção de Lesões
75%
Implementação Tática
50%

Eventos Recentes

Participou de uma reunião de recrutamento 7d atrás
Recomendou um alvo de transferência 7d atrás
Participou de uma reunião de recrutamento 14d atrás
Participou de uma reunião de recrutamento 21d atrás
Recomendou um alvo de transferência 21d atrás
Recomendou um alvo de transferência 21d atrás
Avaliou um jogador 21d atrás
Avaliou um jogador 21d atrás

Monitorando agora

178
Jogador Clube Status Habilidade Confiança Observado Última observação Último voto
Ricardo Ryller Bragantino Ativo 100 / 102 58% 1 12.06.2028 Aprovar
Daniel Banjaqui Benfica Ativo 124 / 123 40% 1 01.06.2028 -
Gonzalo Fulham Ativo 156 / 142 40% 4 31.05.2028 -
Carlos Alcaraz Stoke City Ativo 158 / 143 40% 1 31.05.2028 -
Artur Botafogo Ativo 140 / 144 58% 1 27.12.2027 Aprovar
Cédric Soares Sport Recife Ativo 116 / 109 58% 1 01.12.2027 Aprovar
Yeremy Pino Crystal Palace Ativo 160 / 139 40% 3 30.05.2027 -
Azor Matusiwa Ipswich Town Ativo 154 / 134 40% 3 27.05.2027 -
Savinho Tottenham Ativo 163 / 170 40% 2 26.05.2027 -
Mile Svilar AS Roma Ativo 164 / 171 40% 1 23.05.2027 -
Fabrizio Correa Juventud Ativo 125 / 126 40% 1 23.05.2027 -
Ben Nelson Leicester City Ativo 144 / 120 40% 1 22.05.2027 -
Boubacar Kamara Aston Villa Ativo 164 / 163 40% 2 21.05.2027 -
Aune Heggebø West Bromwich Albion Ativo 139 / 134 40% 3 20.05.2027 -
Emanuel Emegha Chelsea Ativo 127 / 135 40% 2 20.05.2027 -
Lorenzo Colombo Genoa Ativo 146 / 124 40% 2 18.05.2027 -
Alex Scott Bournemouth Ativo 165 / 162 40% 2 18.05.2027 -
Noni Madueke Arsenal Ativo 171 / 151 40% 1 18.05.2027 -
Malick Fofana Sunderland Ativo 153 / 149 40% 1 18.05.2027 -
Nicolas Jackson Aston Villa Ativo 162 / 149 40% 2 16.05.2027 -
Joe Gelhardt Hull City Ativo 129 / 146 40% 1 16.05.2027 -
Gonçalo Ramos AC Milan Ativo 140 / 141 40% 1 14.05.2027 -
Jason Knight Bristol City Ativo 137 / 115 40% 1 13.05.2027 -
Pedro Porro Tottenham Ativo 157 / 139 40% 2 08.05.2027 -
Tino Livramento Newcastle United Ativo 147 / 146 40% 3 05.05.2027 -
Amadou Onana Aston Villa Ativo 162 / 166 40% 1 05.05.2027 -
Oliver Dovin Coventry City Ativo 125 / 138 40% 2 04.05.2027 -
Mohamed-Ali Cho Hull City Ativo 136 / 131 40% 2 03.05.2027 -
Sam Bell Bristol City Ativo 107 / 133 40% 1 03.05.2027 -
Georginio Rutter Brighton Ativo 140 / 161 40% 1 01.05.2027 -
Diego Romero Universitario Ativo 115 / 132 40% 1 30.04.2027 -
Adam Wharton Crystal Palace Ativo 139 / 164 40% 2 29.04.2027 -
Thiago Brentford Ativo 130 / 145 40% 1 28.04.2027 -
João Pedro Chelsea Ativo 158 / 164 40% 1 28.04.2027 -
André-Franck Zambo Anguissa Napoli Ativo 157 / 151 40% 3 24.04.2027 -
James Garner Everton Ativo 146 / 164 40% 1 24.04.2027 -
Kyle Walker-Peters West Ham United Ativo 133 / 139 40% 1 22.04.2027 -
Olivier Boscagli Brighton Ativo 157 / 149 40% 1 21.04.2027 -
Moisés Caicedo Chelsea Ativo 166 / 169 40% 1 21.04.2027 -
Sławomir Abramowicz Jagiellonia Ativo 125 / 123 40% 2 20.04.2027 -
Manor Solomon West Ham United Ativo 139 / 143 40% 1 18.04.2027 -
Fran Vieites Walsall Ativo 108 / 109 40% 2 15.04.2027 -
Deniz Ertaş Konyaspor Ativo 140 / 132 40% 1 15.04.2027 -
Lucas Lund Viborg Ativo 135 / 122 40% 1 14.04.2027 -
Matthew Targett Hull City Ativo 139 / 115 40% 2 13.04.2027 -
Luke McNally Bristol City Ativo 131 / 144 40% 1 13.04.2027 -
Jack Rudoni Coventry City Ativo 142 / 123 40% 3 12.04.2027 -
Jackson Muleka Konyaspor Ativo 134 / 133 40% 2 12.04.2027 -
Sam Greenwood Bristol City Ativo 110 / 115 40% 2 08.04.2027 -
Milan van Ewijk Coventry City Ativo 137 / 119 40% 1 08.04.2027 -
Zion Suzuki Aston Villa Ativo 159 / 141 40% 3 05.04.2027 -
Florentino Luís Ipswich Town Ativo 136 / 127 40% 1 05.04.2027 -
Diego Gómez Brighton Ativo 149 / 138 40% 1 05.04.2027 -
Dara O'Shea Ipswich Town Ativo 126 / 135 40% 3 03.04.2027 -
Christopher Opéri Basaksehir Ativo 119 / 129 40% 1 03.04.2027 -
Richard Koné Queens Park Rangers Ativo 117 / 119 40% 1 02.04.2027 -
Ilyas Ansah Hull City Ativo 144 / 120 40% 1 02.04.2027 -
Stiven Shpendi Empoli Ativo 112 / 109 40% 1 01.04.2027 -
Aidan Morris Middlesbrough Ativo 145 / 123 40% 1 31.03.2027 -
Ivo Mammini Beitar Jerusalem Ativo 110 / 126 40% 1 30.03.2027 -
Willem Geubbels Lecce Ativo 127 / 114 40% 1 30.03.2027 -
Harry Clarke Preston Ativo 117 / 135 40% 2 29.03.2027 -
Ollie Scarles West Ham United Ativo 123 / 138 40% 1 29.03.2027 -
Habib Diarra Sunderland Ativo 154 / 150 40% 1 28.03.2027 -
Raúl Rangel Braga Ativo 124 / 129 40% 2 25.03.2027 -
Henrique Araújo Casa Pia Ativo 115 / 125 40% 2 24.03.2027 -
Cezary Miszta Rio Ave Ativo 141 / 134 40% 2 20.03.2027 -
Brooke Norton-Cuffy Hull City Ativo 122 / 136 40% 2 20.03.2027 -
Mads Hedenstad AGF Ativo 120 / 124 40% 1 20.03.2027 -
Robin Roefs Sunderland Ativo 154 / 131 40% 6 18.03.2027 -
Gabriel Brazão Santos Ativo 135 / 140 40% 2 17.03.2027 -
Zeno Debast Sporting CP Ativo 138 / 149 40% 2 16.03.2027 -
Adam Randell Bristol City Ativo 132 / 126 40% 2 15.03.2027 -
Denis Huseinbašić Braga Ativo 118 / 143 40% 1 15.03.2027 -
Pablo Rosario Porto Ativo 153 / 127 40% 3 14.03.2027 -
Jacques Ekomié Wrexham Ativo 122 / 136 40% 1 14.03.2027 -
Leon Goretzka Aston Villa Ativo 160 / 163 40% 5 13.03.2027 -
Gustavo Silva Vitoria Guimaraes Ativo 115 / 128 40% 2 13.03.2027 -
Vinícius Lopes Santa Clara Ativo 130 / 131 40% 1 13.03.2027 -
Max Johnston Derby County Ativo 129 / 135 40% 1 11.03.2027 -
Justo Giani Umraniyespor Ativo 105 / 128 40% 1 11.03.2027 -
Yousef Salech Cardiff City Ativo 141 / 137 40% 1 11.03.2027 -
Maduka Okoye Udinese Ativo 128 / 131 40% 2 10.03.2027 -
Sorriso Famalicao Ativo 147 / 128 40% 1 08.03.2027 -
Gustavo Hamer Sheffield United Ativo 118 / 140 40% 1 06.03.2027 -
Mads Hermansen West Ham United Ativo 150 / 123 40% 5 05.03.2027 -
Josh Keeley Luton Town Ativo 129 / 127 40% 3 05.03.2027 -
Sikou Niakaté Braga Ativo 141 / 150 40% 1 05.03.2027 -
Sergi Altimira Sporting CP Ativo 152 / 145 40% 2 03.03.2027 -
Elia Caprile Cagliari Ativo 140 / 135 40% 2 01.03.2027 -
Andreas Jungdal Westerlo Ativo 109 / 109 40% 1 01.03.2027 -
Patrick Agyemang Derby County Ativo 122 / 131 40% 1 28.02.2027 -
Rodrigo Pinheiro Famalicao Ativo 137 / 130 40% 1 22.02.2027 -
Jeremy Márquez Cruz Azul Ativo 138 / 139 40% 1 22.02.2027 -
Mathias De Amorim Famalicao Ativo 118 / 147 40% 4 20.02.2027 -
Figueiredo Alverca Ativo 142 / 113 40% 2 19.02.2027 -
Roberto Fernández Braga Ativo 141 / 127 40% 1 19.02.2027 -
Dinis Pinto Moreirense Ativo 120 / 116 40% 3 17.02.2027 -
Marquinhos Spartak Moscow Ativo 113 / 115 40% 1 17.02.2027 -
Tyrese Campbell Sheffield United Ativo 132 / 133 40% 1 15.02.2027 -
Tamble Monteiro Rio Ave Ativo 112 / 132 40% 1 13.02.2027 -
Jan Bednarek Porto Ativo 146 / 143 40% 3 12.02.2027 -
Filip Kubala Banik Ostrava Ativo 125 / 136 40% 1 11.02.2027 -
Duk Atlas Ativo 112 / 105 40% 1 11.02.2027 -
Nicolò Tresoldi Club Brugge Ativo 136 / 124 40% 1 10.02.2027 -
Mohammad Hosseini Malavan Ativo 102 / 136 40% 1 08.02.2027 -
Martín Tejón Maritimo Ativo 104 / 119 40% 2 05.02.2027 -
Grégoire Coudert Burnley Ativo 128 / 138 40% 5 04.02.2027 -
Gabriel Silva Braga Ativo 116 / 113 40% 3 03.02.2027 -
Alfonso Trezza Arouca Ativo 120 / 138 40% 1 03.02.2027 -
Enzo Barrenechea Benfica Ativo 157 / 136 40% 3 31.01.2027 -
Luís Esteves Atlas Ativo 141 / 130 40% 1 31.01.2027 -
Radek Vítek Middlesbrough Ativo 129 / 127 40% 3 29.01.2027 -
Jordan Holsgrove Estoril Praia Ativo 143 / 114 40% 1 28.01.2027 -
Matheus Bidu Corinthians Ativo 138 / 124 40% 2 26.01.2027 -
André Wolverhampton Ativo 144 / 132 40% 1 26.01.2027 -
Rubén Duarte Pumas UNAM Ativo 116 / 129 40% 1 19.01.2027 -
Caio Alexandre Bahia Ativo 144 / 146 40% 1 13.01.2027 -
Hidemasa Morita Hull City Ativo 144 / 156 40% 1 13.01.2027 -
Lazar Carević Famalicao Ativo 114 / 133 40% 2 11.01.2027 -
Luciano Juba Bahia Ativo 133 / 122 40% 2 10.01.2027 -
Lucas Paquetá Flamengo Ativo 133 / 143 40% 1 08.01.2027 -
James Trafford Leeds United Ativo 152 / 134 40% 3 29.12.2026 -
Lukas Jensen Millwall Ativo 117 / 131 40% 1 23.12.2026 -
Anthony Patterson Wrexham Ativo 112 / 126 40% 2 14.12.2026 -
Bright Arrey-Mbi Braga Ativo 118 / 123 40% 2 30.11.2026 -
Soma Anzai FC Tokyo Ativo 117 / 108 40% 2 28.11.2026 -
Lorougnon Gohi Académico de Viseu Ativo 102 / 128 40% 3 26.11.2026 -
Adriel Torreense Ativo 116 / 125 40% 2 25.11.2026 -
Tomás Araújo Benfica Ativo 138 / 159 40% 1 23.11.2026 -
Samuel Soares Benfica Ativo 138 / 139 40% 2 21.11.2026 -
Mario Dorgeles Braga Ativo 121 / 145 40% 6 14.11.2026 -
Taichi Fukui Arouca Ativo 124 / 118 40% 1 14.11.2026 -
Ramón Juárez Club America Ativo 123 / 125 40% 1 12.11.2026 -
Joe Hodge Tondela Ativo 133 / 120 40% 1 11.11.2026 -
Giorgos Koutsias Famalicao Ativo 110 / 120 40% 1 08.11.2026 -
Carlos Forbs Club Brugge Ativo 148 / 133 40% 1 08.11.2026 -
Hugo Souza Corinthians Ativo 126 / 136 40% 4 05.11.2026 -
Erik Lira Cruz Azul Ativo 120 / 138 40% 1 03.11.2026 -
Ianis Stoica Estrela da Amadora Ativo 99 / 120 40% 1 02.11.2026 -
Matheus Dias Nacional Ativo 117 / 124 40% 1 02.11.2026 -
Daniel Júnior Nacional Ativo 99 / 98 40% 3 31.10.2026 -
Manu Pozo Torreense Ativo 110 / 131 40% 4 30.10.2026 -
Bernardo Fontes Braga Ativo 126 / 129 40% 1 30.10.2026 -
Mateja Stjepanović Moreirense Ativo 126 / 123 40% 1 30.10.2026 -
Tiago Ribeiro Oliveirense Ativo 108 / 111 40% 1 29.10.2026 -
Cristian Medina Botafogo Ativo 117 / 140 40% 1 27.10.2026 -
Alan Varela Porto Ativo 143 / 134 40% 1 26.10.2026 -
Mauro Silveira Junior Ativo 128 / 107 40% 1 24.10.2026 -
Caoimhin Kelleher Brentford Ativo 164 / 135 40% 1 23.10.2026 -
Alejandro Piedrahita Deportivo Pereira Ativo 134 / 131 40% 1 20.10.2026 -
Francisco Domingues Moreirense Ativo 122 / 113 40% 1 19.10.2026 -
William Cruzeiro Ativo 127 / 137 40% 1 15.10.2026 -
Jean-Baptiste Gorby Braga Ativo 149 / 120 40% 1 13.10.2026 -
Brian Gutiérrez Guadalajara Ativo 143 / 145 40% 1 11.10.2026 -
Luis Romo Guadalajara Ativo 154 / 150 40% 1 11.10.2026 -
Andrés Gómez Vasco da Gama Ativo 136 / 144 40% 1 08.10.2026 -
Alberto Costa Porto Ativo 141 / 131 40% 5 07.10.2026 -
Lucão Gil Vicente Ativo 128 / 110 40% 1 07.10.2026 -
Pau Víctor Braga Ativo 149 / 126 40% 3 04.10.2026 -
Lewis Cook Bournemouth Ativo 165 / 131 40% 1 01.10.2026 -
Alan Lescano Argentinos Juniors Ativo 128 / 121 40% 1 28.09.2026 -
Michael Cooper Sheffield United Ativo 142 / 130 40% 1 27.09.2026 -
Guilherme Arana Fluminense Ativo 141 / 146 40% 2 25.09.2026 -
Léo Ortiz Flamengo Ativo 149 / 138 40% 1 25.09.2026 -
Juan Sierra La Equidad Ativo 125 / 132 40% 1 24.09.2026 -
Rico Henry River Plate Ativo 140 / 142 40% 1 23.09.2026 -
Danilo Botafogo Ativo 149 / 132 40% 1 23.09.2026 -
Samuel Dahl Benfica Ativo 132 / 139 40% 3 22.09.2026 -
Lee Hyun-Ju Arouca Ativo 134 / 110 40% 1 19.09.2026 -
Renan Lodi Atlético Mineiro Ativo 147 / 125 40% 1 08.09.2026 -
Korede Osundina Casa Pia Ativo 127 / 104 40% 1 07.09.2026 -
Carlos Álvarez Club America Ativo 150 / 138 40% 1 27.08.2026 -
Gianluca Prestianni Benfica Ativo 138 / 145 40% 2 23.08.2026 -
Arthur Flamengo Ativo 144 / 142 40% 1 22.08.2026 -
Ricardo Horta Braga Ativo 152 / 162 40% 1 17.08.2026 -
Heorhii Sudakov Benfica Ativo 155 / 143 40% 1 11.08.2026 -
Eduardo Quaresma Sporting CP Ativo 141 / 149 40% 1 02.08.2026 -